Idalia, Colorado
Current Conditions -  °F | °C
As of 10:35 AM on Tuesday 21 Oct 2014 (Local Time) from KSYF Reporting Station
Clear Clear  
Wind Chill: 64°   Ceiling: Unl
Heat Index: 64°   Visibility: 10mi
Dew Point: 53°   Wind: 20mph
Humidity: 69%   Direction: 170°S
Pressure: 30.03"   Gusts: NA
Location:  39.7°N, 102.29°W
Report Text: KSYF 211635Z AUTO 17017KT 10SM CLR 18/12 A3003 RMK AO2 T01760119
Loading
Personal Weather Stations






























Interactive Weather Map
Tropical Storm Tracking
New forecast layout! Learn more

10-Day Weather Forecast

Advertisements
Track Severe Weather on mobile